Time;durP1;ratioP1;P1;durP2;ratioP2;P2;SDS_P1;SDS_P2;PMS_P1;PMS_P2;Temp;Humidity;BMP_temperature;BMP_pressure;BME280_temperature;BME280_humidity;BME280_pressure;Samples;Min_cycle;Max_cycle;Signal;HPM_P1;HPM_P2
2022/05/01 00:01:39;;;;;;;11.13;5.82;;;;;;;13.22;70.32;100569.22;5029729;28;20030;-31
2022/05/01 00:04:05;;;;;;;9.05;5.80;;;;;;;12.98;71.10;100562.88;5029838;28;20022;-29
2022/05/01 00:06:33;;;;;;;10.27;6.00;;;;;;;12.91;71.70;100580.06;5029276;28;20030;-32
2022/05/01 00:09:00;;;;;;;7.82;5.25;;;;;;;12.57;72.51;100571.53;5029512;28;20049;-28
2022/05/01 00:11:27;;;;;;;10.07;5.65;;;;;;;12.26;74.29;100575.91;5028426;28;20033;-29
2022/05/01 00:13:52;;;;;;;9.90;6.10;;;;;;;12.19;75.12;100564.41;5029621;28;20025;-29
2022/05/01 00:16:18;;;;;;;8.52;5.70;;;;;;;12.42;74.22;100582.53;5028187;28;20037;-29
2022/05/01 00:18:44;;;;;;;8.63;5.32;;;;;;;12.75;73.28;100579.59;5029011;28;20029;-29
2022/05/01 00:21:10;;;;;;;9.50;6.25;;;;;;;13.01;71.69;100583.84;5029446;28;20113;-31
2022/05/01 00:23:36;;;;;;;9.02;5.72;;;;;;;12.78;72.46;100572.97;5027647;28;20043;-29
2022/05/01 00:26:04;;;;;;;7.20;5.30;;;;;;;13.15;71.36;100583.72;5029131;28;20435;-31
2022/05/01 00:28:32;;;;;;;9.30;5.47;;;;;;;12.91;71.26;100572.03;5029208;28;20072;-32
2022/05/01 00:30:58;;;;;;;9.15;5.35;;;;;;;12.63;72.09;100586.72;5028796;28;20041;-29
2022/05/01 00:36:25;;;;;;;9.93;5.57;;;;;;;12.81;71.65;100593.94;5028943;28;20187;-30
2022/05/01 00:38:56;;;;;;;11.70;6.43;;;;;;;12.86;72.30;100596.78;5027335;28;20030;-31
2022/05/01 00:41:23;;;;;;;11.20;5.82;;;;;;;12.46;73.96;100600.63;5027242;28;20045;-29
2022/05/01 00:43:57;;;;;;;9.82;5.97;;;;;;;12.32;74.18;100596.44;5029178;28;20513;-29
2022/05/01 00:46:24;;;;;;;10.43;5.78;;;;;;;12.31;73.69;100577.91;5028858;28;20061;-30
2022/05/01 00:48:49;;;;;;;11.05;6.80;;;;;;;12.22;74.56;100569.34;5028744;28;20539;-31
2022/05/01 00:51:16;;;;;;;8.60;6.28;;;;;;;12.58;73.54;100583.84;5028499;28;20041;-30
2022/05/01 00:53:43;;;;;;;9.35;6.22;;;;;;;12.51;74.00;100594.63;5028664;28;20024;-28
2022/05/01 00:56:09;;;;;;;9.65;6.03;;;;;;;12.65;72.29;100600.69;5028331;28;20076;-29
2022/05/01 00:58:35;;;;;;;9.95;5.63;;;;;;;12.33;74.08;100603.41;5028903;28;20053;-29
2022/05/01 01:01:01;;;;;;;10.57;5.68;;;;;;;12.15;75.02;100589.97;5028272;28;20149;-29
2022/05/01 01:03:26;;;;;;;9.85;6.00;;;;;;;12.02;76.05;100591.69;5028452;28;20567;-28
2022/05/01 01:05:52;;;;;;;8.73;6.13;;;;;;;12.20;75.43;100604.31;5028396;28;20025;-28
2022/05/01 01:08:17;;;;;;;9.25;6.35;;;;;;;12.22;75.55;100606.78;5026830;28;20025;-30
2022/05/01 01:10:42;;;;;;;11.10;6.15;;;;;;;12.26;76.35;100610.66;5028077;28;20028;-28
2022/05/01 01:13:08;;;;;;;11.57;6.53;;;;;;;12.32;76.00;100612.47;5028699;28;20116;-32
2022/05/01 01:15:35;;;;;;;9.45;5.60;;;;;;;11.81;78.14;100611.50;5026872;28;20025;-29
2022/05/01 01:18:01;;;;;;;10.50;5.93;;;;;;;11.98;76.63;100606.50;5026306;28;20045;-30
2022/05/01 01:20:28;;;;;;;8.40;6.28;;;;;;;12.13;76.07;100600.84;5028042;28;20057;-29
2022/05/01 01:22:59;;;;;;;9.55;6.22;;;;;;;12.04;76.47;100602.97;5027978;28;20037;-29
2022/05/01 01:25:30;;;;;;;10.18;6.60;;;;;;;12.11;77.07;100594.09;5028569;28;20607;-34
2022/05/01 01:28:02;;;;;;;11.27;5.53;;;;;;;12.20;75.02;100590.13;5028218;28;20215;-30
2022/05/01 01:33:13;;;;;;;8.93;6.05;;;;;;;11.86;77.68;100581.47;5027916;28;20469;-29
2022/05/01 01:35:40;;;;;;;10.43;6.50;;;;;;;11.94;76.94;100562.53;5027401;28;20029;-28
2022/05/01 01:38:06;;;;;;;9.30;6.65;;;;;;;12.03;76.40;100571.09;5028041;28;20246;-31
2022/05/01 01:40:40;;;;;;;9.80;6.07;;;;;;;12.03;75.75;100561.25;5027910;28;20037;-32
2022/05/01 01:43:06;;;;;;;9.38;5.90;;;;;;;12.11;75.65;100557.47;5026433;28;20699;-29
2022/05/01 01:45:32;;;;;;;9.40;6.22;;;;;;;11.96;75.63;100549.78;5027852;28;20025;-29
2022/05/01 01:48:15;;;;;;;9.68;6.43;;;;;;;12.04;75.00;100560.22;5027350;28;20040;-31
2022/05/01 01:50:42;;;;;;;10.70;6.40;;;;;;;12.14;74.10;100540.22;5027579;28;20025;-29
2022/05/01 01:53:10;;;;;;;11.18;6.45;;;;;;;11.68;75.69;100543.97;5027812;28;20060;-28
2022/05/01 01:55:37;;;;;;;11.43;6.75;;;;;;;11.97;74.87;100546.09;5027717;28;20047;-30
2022/05/01 01:58:03;;;;;;;10.52;6.22;;;;;;;11.97;74.71;100547.91;5027707;28;20029;-29
2022/05/01 02:00:29;;;;;;;8.93;6.65;;;;;;;11.90;74.54;100558.66;5027690;28;20052;-32
2022/05/01 02:03:06;;;;;;;12.05;6.47;;;;;;;11.77;75.83;100561.38;5027591;28;20029;-29
2022/05/01 02:05:33;;;;;;;8.80;5.90;;;;;;;11.63;75.86;100529.41;5027879;28;20033;-29
2022/05/01 02:08:00;;;;;;;8.73;5.93;;;;;;;11.99;74.41;100538.66;5009827;28;20025;-30
2022/05/01 02:10:26;;;;;;;9.32;5.97;;;;;;;11.81;74.41;100519.81;5027496;28;20520;-30
2022/05/01 02:12:52;;;;;;;10.13;6.35;;;;;;;12.05;74.60;100543.16;5027566;28;20385;-29
2022/05/01 02:15:18;;;;;;;9.85;5.88;;;;;;;11.46;76.36;100533.59;5027369;28;20049;-31
2022/05/01 02:17:45;;;;;;;10.65;6.32;;;;;;;11.39;76.45;100528.28;5026230;28;20033;-30
2022/05/01 02:20:11;;;;;;;11.73;6.35;;;;;;;11.06;77.35;100528.44;5027538;28;20057;-30
2022/05/01 02:22:40;;;;;;;13.00;6.32;;;;;;;11.31;76.20;100535.72;5027553;28;20098;-28
2022/05/01 02:25:07;;;;;;;13.07;6.43;;;;;;;10.88;78.18;100525.59;5027362;28;20029;-30
2022/05/01 02:27:36;;;;;;;10.73;6.05;;;;;;;10.47;80.57;100542.72;5027235;28;20453;-29
2022/05/01 02:30:02;;;;;;;9.35;5.80;;;;;;;10.17;81.02;100525.22;5028586;28;20033;-29
2022/05/01 02:32:29;;;;;;;8.80;5.90;;;;;;;9.99;81.66;100528.53;5031200;28;20040;-29
2022/05/01 02:34:55;;;;;;;8.60;5.47;;;;;;;9.98;81.31;100537.53;5029682;28;20032;-28
2022/05/01 02:37:20;;;;;;;12.15;6.25;;;;;;;10.50;79.99;100544.94;5031048;28;20057;-29
2022/05/01 02:39:45;;;;;;;8.32;5.47;;;;;;;10.34;80.72;100533.69;5031227;28;20499;-30
2022/05/01 02:42:11;;;;;;;8.57;5.43;;;;;;;9.78;81.54;100516.19;5031014;28;20052;-29
2022/05/01 02:44:37;;;;;;;10.18;5.22;;;;;;;9.76;82.29;100534.22;5031186;28;20072;-29
2022/05/01 02:47:03;;;;;;;10.77;5.53;;;;;;;10.44;78.69;100531.44;5031044;28;20425;-29
2022/05/01 02:49:29;;;;;;;9.10;5.60;;;;;;;10.42;78.16;100527.31;5031231;28;20116;-28
2022/05/01 02:51:54;;;;;;;8.45;5.35;;;;;;;10.29;78.79;100528.09;5030935;28;20022;-30
2022/05/01 02:54:23;;;;;;;11.25;5.80;;;;;;;10.18;79.96;100526.88;5031079;28;20036;-30
2022/05/01 02:56:51;;;;;;;9.52;5.88;;;;;;;9.87;82.02;100524.81;5028970;28;20033;-29
2022/05/01 02:59:17;;;;;;;8.02;5.30;;;;;;;9.93;81.42;100533.81;5031024;28;20172;-28
2022/05/01 03:01:43;;;;;;;9.25;5.45;;;;;;;9.74;81.82;100519.47;5030706;28;20823;-29
2022/05/01 03:04:09;;;;;;;7.18;4.63;;;;;;;9.72;81.44;100537.47;5030936;28;20116;-28
2022/05/01 03:06:34;;;;;;;9.90;5.75;;;;;;;10.17;79.52;100543.88;5030729;28;20025;-29
2022/05/01 03:09:00;;;;;;;8.95;5.35;;;;;;;9.75;80.08;100513.13;5030263;28;20450;-29
2022/05/01 03:11:26;;;;;;;9.43;5.35;;;;;;;10.15;79.09;100545.13;5030358;28;20032;-28
2022/05/01 03:13:51;;;;;;;8.40;5.97;;;;;;;9.93;79.54;100534.66;5029299;28;20410;-29
2022/05/01 03:16:17;;;;;;;9.52;6.03;;;;;;;9.93;80.29;100540.00;5029323;28;20482;-33
2022/05/01 03:24:11;;;;;;;10.95;8.10;;;;;;;9.44;84.90;100520.63;5030299;28;20056;-29
2022/05/01 03:26:36;;;;;;;12.60;8.00;;;;;;;9.33;86.72;100526.50;5030557;28;20041;-28
2022/05/01 03:29:02;;;;;;;10.85;7.75;;;;;;;9.34;86.68;100551.31;5028736;28;20047;-31
2022/05/01 03:31:27;;;;;;;10.75;7.82;;;;;;;9.17;87.35;100535.66;5030224;28;20037;-31
2022/05/01 03:33:54;;;;;;;10.43;6.97;;;;;;;9.24;86.28;100549.00;5030225;28;20033;-32
2022/05/01 03:36:21;;;;;;;14.02;8.68;;;;;;;9.05;86.53;100545.22;5030053;28;20049;-29
2022/05/01 03:38:46;;;;;;;11.35;7.90;;;;;;;9.23;86.49;100540.22;5029985;28;20033;-30
2022/05/01 03:41:15;;;;;;;12.05;8.23;;;;;;;9.51;83.84;100546.44;5029242;28;20055;-31
2022/05/01 03:43:41;;;;;;;13.43;8.37;;;;;;;9.60;83.39;100543.41;5030139;28;20029;-28
2022/05/01 03:46:06;;;;;;;11.93;7.03;;;;;;;9.86;82.40;100555.94;5028547;28;20034;-29
2022/05/01 03:48:32;;;;;;;10.18;6.38;;;;;;;9.72;83.19;100558.78;5030224;28;20036;-29
2022/05/01 03:50:58;;;;;;;9.43;6.57;;;;;;;9.97;82.49;100567.88;5027929;28;20036;-28
2022/05/01 03:53:24;;;;;;;11.25;6.53;;;;;;;10.10;81.73;100571.59;5030099;28;20033;-28
2022/05/01 03:55:51;;;;;;;12.20;6.80;;;;;;;10.12;81.46;100566.88;5029737;28;20045;-28
2022/05/01 03:58:16;;;;;;;10.50;6.30;;;;;;;10.06;81.47;100581.81;5030021;28;20030;-28
2022/05/01 04:00:47;;;;;;;9.40;5.93;;;;;;;9.79;83.66;100559.63;5029303;28;20387;-32
2022/05/01 04:03:16;;;;;;;11.40;6.70;;;;;;;9.75;83.60;100556.56;5029796;28;20034;-29
2022/05/01 04:05:42;;;;;;;12.60;6.68;;;;;;;10.25;81.65;100574.88;5029510;28;20017;-29
2022/05/01 04:08:08;;;;;;;9.90;6.55;;;;;;;10.62;79.92;100583.31;5029974;28;20107;-29
2022/05/01 04:10:42;;;;;;;10.00;6.70;;;;;;;10.78;79.20;100577.53;5029907;28;20018;-33
2022/05/01 04:13:09;;;;;;;9.70;5.80;;;;;;;10.82;78.38;100573.41;5029651;28;20033;-29
2022/05/01 04:15:36;;;;;;;8.68;5.45;;;;;;;10.82;77.57;100581.44;5029524;28;20060;-28
2022/05/01 04:18:06;;;;;;;8.45;4.93;;;;;;;10.95;77.03;100571.75;5029030;28;20044;-29
2022/05/01 04:20:38;;;;;;;9.18;5.93;;;;;;;11.20;76.01;100562.06;5029439;28;20034;-30
2022/05/01 04:23:07;;;;;;;8.75;5.93;;;;;;;11.33;76.51;100587.88;5027770;28;20041;-30
2022/05/01 04:25:34;;;;;;;8.32;5.78;;;;;;;11.42;76.00;100575.94;5028247;28;20180;-28
2022/05/01 04:28:05;;;;;;;9.80;6.75;;;;;;;11.29;77.65;100588.50;5029133;28;20044;-28
2022/05/01 04:30:34;;;;;;;8.02;6.00;;;;;;;11.08;78.08;100578.94;5028941;28;20028;-29
2022/05/01 04:33:07;;;;;;;11.48;6.93;;;;;;;11.42;78.27;100585.78;5028966;28;20045;-29
2022/05/01 04:35:37;;;;;;;9.02;6.18;;;;;;;11.41;77.15;100584.97;5029176;28;20104;-29
2022/05/01 04:38:14;;;;;;;10.52;6.88;;;;;;;11.50;76.60;100593.56;5028942;28;20041;-30
2022/05/01 04:40:48;;;;;;;9.55;6.28;;;;;;;11.59;77.97;100592.28;5028962;28;20087;-29
2022/05/01 04:43:18;;;;;;;9.95;6.75;;;;;;;11.57;77.95;100582.88;5029180;28;20474;-29
2022/05/01 04:45:49;;;;;;;10.00;6.50;;;;;;;11.61;77.85;100590.22;5027858;28;20021;-29
2022/05/01 04:48:15;;;;;;;10.05;6.65;;;;;;;11.70;76.92;100576.63;5029073;28;20060;-30
2022/05/01 04:50:41;;;;;;;9.00;6.63;;;;;;;11.74;76.88;100600.03;5028624;28;20033;-34
2022/05/01 04:53:12;;;;;;;9.57;6.50;;;;;;;11.71;76.28;100580.91;5027098;28;20067;-30
2022/05/01 04:55:41;;;;;;;12.55;7.25;;;;;;;11.79;76.43;100592.19;5028722;28;20030;-29
2022/05/01 04:58:09;;;;;;;11.85;7.18;;;;;;;11.75;76.73;100584.81;5028768;28;20037;-28
2022/05/01 05:00:35;;;;;;;10.70;7.03;;;;;;;12.00;76.68;100596.41;5028589;28;20033;-31
2022/05/01 05:03:02;;;;;;;12.80;7.25;;;;;;;12.15;76.68;100588.09;5028209;28;20026;-28
2022/05/01 05:05:28;;;;;;;10.88;7.22;;;;;;;12.28;76.13;100573.81;5028633;28;20617;-29
2022/05/01 05:07:55;;;;;;;11.63;7.32;;;;;;;12.32;75.92;100579.53;5028225;28;20500;-29
2022/05/01 05:10:20;;;;;;;12.88;7.45;;;;;;;12.24;76.34;100602.84;5028320;28;20461;-30
2022/05/01 05:12:47;;;;;;;10.45;7.22;;;;;;;12.44;75.75;100602.72;5028469;28;20029;-29
2022/05/01 05:15:15;;;;;;;11.45;7.97;;;;;;;12.54;75.73;100610.22;5028325;28;20029;-30
2022/05/01 05:17:42;;;;;;;;;;;;;;;12.81;75.59;100605.47;5027485;28;20064;-32
2022/05/01 05:20:10;;;;;;;11.88;8.55;;;;;;;12.81;76.08;100593.94;5028238;28;20047;-29
2022/05/01 05:22:35;;;;;;;13.05;9.73;;;;;;;13.25;74.47;100600.91;5028118;28;20033;-29
2022/05/01 05:25:03;;;;;;;13.80;9.25;;;;;;;13.14;74.63;100582.91;5026685;28;20036;-29
2022/05/01 05:27:28;;;;;;;10.87;8.40;;;;;;;13.41;73.30;100601.38;5028554;28;20030;-29
2022/05/01 05:29:57;;;;;;;14.10;9.50;;;;;;;13.41;73.13;100582.63;5026540;28;20026;-33
2022/05/01 05:32:24;;;;;;;11.77;9.02;;;;;;;13.53;73.07;100604.94;5026789;28;20021;-32
2022/05/01 05:34:50;;;;;;;13.32;9.52;;;;;;;13.58;73.84;100607.75;5027769;28;20065;-30
2022/05/01 05:37:17;;;;;;;13.80;9.23;;;;;;;13.83;72.53;100588.88;5027885;28;20076;-30
2022/05/01 05:39:43;;;;;;;12.80;9.05;;;;;;;13.74;72.17;100602.81;5026608;28;20052;-29
2022/05/01 05:42:08;;;;;;;12.75;9.10;;;;;;;13.78;71.88;100585.25;5027771;28;20029;-28
2022/05/01 05:44:34;;;;;;;12.43;9.45;;;;;;;14.17;71.27;100612.53;5028172;28;20032;-33
2022/05/01 05:46:59;;;;;;;12.50;8.45;;;;;;;14.14;72.16;100607.59;5027433;28;20508;-31
2022/05/01 05:49:25;;;;;;;12.65;9.18;;;;;;;14.23;71.17;100582.09;5027796;28;20029;-31
2022/05/01 05:51:51;;;;;;;12.82;9.70;;;;;;;14.68;70.52;100607.63;5027581;28;20124;-30
2022/05/01 05:54:17;;;;;;;14.50;8.55;;;;;;;14.89;68.78;100608.91;5028087;28;20706;-29
2022/05/01 05:56:42;;;;;;;14.10;8.50;;;;;;;15.09;67.43;100603.19;5027436;28;20025;-33
2022/05/01 05:59:07;;;;;;;12.27;8.98;;;;;;;15.12;67.96;100606.22;5027549;28;20168;-30
2022/05/01 06:01:33;;;;;;;10.38;7.60;;;;;;;14.81;66.47;100610.06;5026228;28;20031;-29
2022/05/01 06:03:59;;;;;;;11.90;9.48;;;;;;;14.74;68.25;100618.25;5027070;28;20029;-29
2022/05/01 06:06:24;;;;;;;12.00;8.30;;;;;;;14.60;67.06;100611.47;5027020;28;20029;-30
2022/05/01 06:08:50;;;;;;;10.77;8.00;;;;;;;14.86;65.96;100627.13;5025858;28;20072;-29
2022/05/01 06:11:15;;;;;;;9.27;7.18;;;;;;;14.85;65.11;100621.97;5027406;28;20482;-32
2022/05/01 06:13:41;;;;;;;10.43;6.43;;;;;;;14.88;65.82;100615.34;5027417;28;20478;-31
2022/05/01 06:16:06;;;;;;;12.88;7.15;;;;;;;14.98;64.02;100629.81;5027633;28;20120;-30
2022/05/01 06:18:32;;;;;;;9.98;6.70;;;;;;;14.95;64.26;100618.72;5027197;28;20029;-29
2022/05/01 06:20:57;;;;;;;11.38;6.22;;;;;;;14.77;63.47;100628.53;5026896;28;20033;-29
2022/05/01 06:23:23;;;;;;;10.52;5.43;;;;;;;14.90;63.00;100616.75;5027278;28;20048;-29
2022/05/01 06:25:49;;;;;;;7.35;5.00;;;;;;;14.94;62.56;100611.72;5027603;28;20030;-30
2022/05/01 06:28:15;;;;;;;11.18;5.78;;;;;;;15.16;63.65;100623.50;5026356;28;20037;-29
2022/05/01 06:30:45;;;;;;;7.35;5.18;;;;;;;14.94;61.78;100634.03;5025541;28;20080;-30
2022/05/01 06:33:16;;;;;;;8.55;5.13;;;;;;;15.21;63.01;100623.59;5027053;28;20029;-29
2022/05/01 06:35:43;;;;;;;6.72;4.88;;;;;;;15.11;61.99;100606.47;5026722;28;20409;-32
2022/05/01 06:38:09;;;;;;;6.75;4.60;;;;;;;15.50;61.17;100626.34;5027421;28;20103;-30
2022/05/01 06:40:38;;;;;;;9.40;5.70;;;;;;;15.54;62.00;100632.88;5027309;28;20046;-32
2022/05/01 06:43:05;;;;;;;7.45;5.15;;;;;;;15.70;60.76;100641.28;5027201;28;20485;-30
2022/05/01 06:45:30;;;;;;;10.27;6.05;;;;;;;15.58;61.79;100642.09;5027145;28;20037;-30
2022/05/01 06:47:56;;;;;;;10.50;5.47;;;;;;;15.94;59.61;100637.47;5026888;28;20021;-29
2022/05/01 06:50:21;;;;;;;8.65;5.38;;;;;;;15.61;60.34;100636.28;5027581;28;20052;-29
2022/05/01 06:52:46;;;;;;;8.38;6.20;;;;;;;15.73;60.34;100640.81;5026843;28;20071;-30
2022/05/01 06:55:13;;;;;;;8.38;5.70;;;;;;;15.81;62.33;100624.28;5027481;28;20095;-35
2022/05/01 06:57:39;;;;;;;8.52;5.45;;;;;;;15.95;60.81;100614.88;5027245;28;20091;-31
2022/05/01 07:00:06;;;;;;;12.88;6.97;;;;;;;16.14;60.58;100620.06;5027208;28;20030;-29
2022/05/01 07:02:31;;;;;;;9.07;5.63;;;;;;;16.61;59.42;100638.59;5026574;28;20026;-33
2022/05/01 07:04:56;;;;;;;8.55;5.72;;;;;;;16.77;58.72;100635.09;5026889;28;20031;-30
2022/05/01 07:07:22;;;;;;;9.20;5.28;;;;;;;16.59;57.75;100628.09;5026845;28;20025;-29
2022/05/01 07:09:47;;;;;;;7.03;5.10;;;;;;;16.60;57.39;100618.16;5026906;28;20030;-30
2022/05/01 07:12:13;;;;;;;7.28;5.32;;;;;;;16.92;59.68;100629.16;5026641;28;20033;-29
2022/05/01 07:14:38;;;;;;;7.70;4.68;;;;;;;17.11;57.02;100629.69;5026387;28;20036;-31
2022/05/01 07:17:04;;;;;;;7.82;5.30;;;;;;;17.20;56.46;100608.53;5026398;28;20037;-34
2022/05/01 07:19:29;;;;;;;6.45;4.35;;;;;;;17.44;52.14;100627.97;5030735;28;20361;-29
2022/05/01 07:21:55;;;;;;;5.78;4.28;;;;;;;17.45;54.79;100627.72;5030412;28;20414;-31
2022/05/01 07:24:20;;;;;;;7.75;4.57;;;;;;;17.70;54.63;100614.81;5030190;28;20037;-30
2022/05/01 07:26:46;;;;;;;6.97;4.82;;;;;;;17.74;52.25;100615.94;5029739;28;20114;-31
2022/05/01 07:29:11;;;;;;;6.82;4.13;;;;;;;17.96;50.15;100611.34;5030280;28;20099;-31
2022/05/01 07:31:37;;;;;;;6.35;3.80;;;;;;;18.33;49.23;100618.69;5029995;28;20140;-29
2022/05/01 07:34:02;;;;;;;6.40;3.45;;;;;;;18.52;47.17;100627.22;5029987;28;20026;-33
2022/05/01 07:36:28;;;;;;;7.90;3.92;;;;;;;18.58;47.77;100626.19;5029856;28;20064;-29
2022/05/01 07:38:53;;;;;;;5.55;3.20;;;;;;;18.57;46.80;100629.13;5029039;28;20033;-33
2022/05/01 07:41:19;;;;;;;6.57;3.30;;;;;;;18.86;44.63;100627.78;5010140;28;20088;-30
2022/05/01 07:43:47;;;;;;;6.13;3.80;;;;;;;18.92;44.40;100614.28;5010061;28;20037;-29
2022/05/01 07:46:13;;;;;;;6.43;3.60;;;;;;;19.39;44.83;100625.09;5010022;28;20486;-29
2022/05/01 07:48:39;;;;;;;8.98;3.38;;;;;;;19.51;40.93;100624.84;5008471;28;20036;-29
2022/05/01 07:51:05;;;;;;;5.53;3.20;;;;;;;19.12;41.60;100629.81;5041798;28;20037;-29
2022/05/01 07:53:33;;;;;;;7.22;3.10;;;;;;;19.49;44.82;100616.19;5041487;28;20129;-31
2022/05/01 07:55:58;;;;;;;7.85;3.10;;;;;;;19.26;42.86;100642.59;5009642;28;20069;-34
2022/05/01 07:58:24;;;;;;;6.30;3.00;;;;;;;19.21;45.26;100631.75;5041419;28;20057;-32
2022/05/01 08:00:50;;;;;;;4.75;2.95;;;;;;;19.25;43.75;100630.16;5009380;28;20123;-30
2022/05/01 08:06:00;;;;;;;6.00;3.05;;;;;;;19.44;42.96;100638.63;5009663;28;20037;-29
2022/05/01 08:08:26;;;;;;;5.47;3.35;;;;;;;19.30;43.73;100636.66;5009415;28;20030;-31
2022/05/01 08:10:52;;;;;;;5.68;2.72;;;;;;;19.17;42.77;100611.72;5009355;28;20030;-30
2022/05/01 08:13:17;;;;;;;5.45;3.00;;;;;;;19.17;43.03;100630.66;5009401;28;20045;-29
2022/05/01 08:15:43;;;;;;;6.95;3.42;;;;;;;19.05;42.20;100630.84;5041098;28;20044;-30
2022/05/01 08:21:05;;;;;;;6.65;2.95;;;;;;;18.42;41.47;100627.13;5009521;28;20096;-30
2022/05/01 08:23:31;;;;;;;6.05;2.88;;;;;;;18.80;40.66;100611.78;5009307;28;20045;-32
2022/05/01 08:26:03;;;;;;;5.88;2.78;;;;;;;19.33;41.34;100604.50;5040746;28;20111;-31
2022/05/01 08:28:31;;;;;;;5.38;2.63;;;;;;;19.75;40.06;100632.53;5009166;28;20025;-30
2022/05/01 08:30:57;;;;;;;5.75;3.72;;;;;;;19.63;40.00;100628.13;5008914;28;20034;-30
2022/05/01 08:33:23;;;;;;;5.20;2.60;;;;;;;19.43;41.50;100619.94;5009269;28;20037;-35
2022/05/01 08:35:49;;;;;;;5.63;2.45;;;;;;;19.61;41.18;100619.47;5008985;28;20026;-31
2022/05/01 08:38:14;;;;;;;4.97;2.75;;;;;;;19.60;39.45;100620.56;5009149;28;20677;-32
2022/05/01 08:40:40;;;;;;;4.93;2.72;;;;;;;19.99;41.07;100627.47;5008696;28;20038;-31
2022/05/01 08:43:05;;;;;;;4.63;2.80;;;;;;;20.12;40.29;100626.13;5009314;28;20026;-30
2022/05/01 08:46:17;;;;;;;5.75;2.35;;;;;;;19.80;39.25;100617.16;5009142;28;20434;-31
2022/05/01 08:48:49;;;;;;;4.15;2.33;;;;;;;20.03;40.35;100623.16;4985172;28;20078;-33
2022/05/01 08:51:16;;;;;;;5.85;2.40;;;;;;;20.09;39.47;100610.44;5009092;28;20030;-29
2022/05/01 08:53:43;;;;;;;4.28;2.60;;;;;;;20.18;39.98;100597.97;5040470;28;20053;-29
2022/05/01 08:56:09;;;;;;;5.93;2.40;;;;;;;20.24;38.67;100589.56;5008781;28;20034;-30
2022/05/01 08:58:39;;;;;;;3.75;2.35;;;;;;;20.38;38.28;100597.97;5008711;28;20200;-34
2022/05/01 09:01:05;;;;;;;4.18;2.28;;;;;;;20.77;37.86;100600.13;5007247;28;20034;-28
2022/05/01 09:03:31;;;;;;;7.32;2.40;;;;;;;20.85;38.57;100604.19;5008344;28;20030;-32
2022/05/01 09:05:57;;;;;;;4.65;2.70;;;;;;;20.68;39.04;100601.78;5008837;28;20203;-29
2022/05/01 09:08:24;;;;;;;4.13;2.20;;;;;;;20.57;38.65;100578.47;5008466;28;20426;-31
2022/05/01 09:10:49;;;;;;;3.70;2.20;;;;;;;21.23;37.43;100580.22;5008339;28;20030;-29
2022/05/01 09:13:15;;;;;;;4.53;2.10;;;;;;;21.42;36.30;100599.41;5008574;28;20022;-30
2022/05/01 09:15:45;;;;;;;4.15;2.25;;;;;;;21.19;36.46;100579.16;5008327;28;20567;-29
2022/05/01 09:18:12;;;;;;;6.75;2.40;;;;;;;21.01;37.42;100583.28;5039829;28;20668;-35
2022/05/01 09:21:05;;;;;;;5.33;2.60;;;;;;;21.37;37.09;100592.09;5008311;28;20091;-29
2022/05/01 09:23:45;;;;;;;4.82;2.50;;;;;;;20.78;36.88;100571.97;5006925;28;20033;-29
2022/05/01 09:26:13;;;;;;;4.57;2.20;;;;;;;21.02;39.19;100563.22;5008263;28;20029;-29
2022/05/01 09:28:51;;;;;;;5.30;2.38;;;;;;;20.72;38.34;100567.63;5007886;28;20034;-30
2022/05/01 09:31:18;;;;;;;7.30;2.70;;;;;;;21.20;36.99;100553.66;5008343;28;20036;-31
2022/05/01 09:33:44;;;;;;;5.95;2.88;;;;;;;21.41;36.74;100551.66;5008428;28;20563;-29
2022/05/01 09:36:36;;;;;;;4.60;2.42;;;;;;;21.80;35.65;100556.31;5039592;28;20129;-30
2022/05/01 09:39:03;;;;;;;5.57;2.30;;;;;;;21.83;34.59;100561.22;5007306;28;20100;-36
2022/05/01 09:41:28;;;;;;;4.35;1.98;;;;;;;21.51;34.91;100537.25;5006618;28;20494;-31
2022/05/01 09:43:54;;;;;;;4.95;2.55;;;;;;;21.88;34.20;100547.59;5008106;28;20037;-29
2022/05/01 09:46:22;;;;;;;4.55;2.38;;;;;;;22.13;34.79;100543.03;5008567;28;20037;-30
2022/05/01 09:48:59;;;;;;;4.22;2.20;;;;;;;22.23;34.63;100548.38;5007813;28;20052;-36
2022/05/01 09:51:26;;;;;;;6.07;2.20;;;;;;;22.13;33.94;100548.47;5006141;28;20574;-29
2022/05/01 09:53:51;;;;;;;4.80;2.17;;;;;;;22.14;33.45;100529.19;5008003;28;20057;-31
2022/05/01 09:56:18;;;;;;;3.42;2.03;;;;;;;22.23;33.22;100532.09;5007902;28;20038;-33
2022/05/01 09:58:44;;;;;;;3.50;2.20;;;;;;;22.31;33.74;100531.50;5007656;28;20026;-30
2022/05/01 10:01:14;;;;;;;4.63;2.17;;;;;;;21.58;33.21;100533.13;5039620;28;20061;-29
2022/05/01 10:03:47;;;;;;;3.83;2.20;;;;;;;21.65;33.69;100528.19;4990195;28;20036;-31
2022/05/01 10:06:14;;;;;;;4.32;2.03;;;;;;;22.17;35.06;100500.63;5007842;28;20116;-30
2022/05/01 10:08:42;;;;;;;3.80;1.92;;;;;;;22.28;32.91;100513.06;5007666;28;20050;-30
2022/05/01 10:11:08;;;;;;;4.97;2.03;;;;;;;22.50;32.73;100503.63;5007367;28;20410;-31
2022/05/01 10:13:35;;;;;;;3.13;1.75;;;;;;;22.33;33.34;100515.75;5006379;28;20036;-29
2022/05/01 10:16:03;;;;;;;3.97;2.05;;;;;;;22.73;30.51;100508.25;5039261;28;20036;-31
2022/05/01 10:18:29;;;;;;;2.92;1.75;;;;;;;23.08;29.95;100514.38;5038996;28;20040;-34
2022/05/01 10:20:55;;;;;;;4.00;2.10;;;;;;;23.18;30.90;100495.22;5007477;28;20029;-39
2022/05/01 10:23:21;;;;;;;3.75;2.13;;;;;;;24.02;29.95;100499.97;5007576;28;20036;-31
2022/05/01 10:26:14;;;;;;;5.30;1.90;;;;;;;23.48;29.85;100479.56;5006167;28;20541;-30
2022/05/01 10:28:57;;;;;;;2.80;1.55;;;;;;;23.79;29.89;100492.72;5007294;28;20034;-31
2022/05/01 10:34:33;;;;;;;3.15;1.77;;;;;;;24.29;27.73;100487.50;5007469;28;20080;-30
2022/05/01 10:37:13;;;;;;;2.75;1.77;;;;;;;24.39;28.66;100461.97;5007083;28;20053;-33
2022/05/01 10:39:40;;;;;;;3.15;1.70;;;;;;;23.95;29.95;100483.19;5007754;28;20109;-30
2022/05/01 10:42:07;;;;;;;2.67;1.80;;;;;;;24.10;29.64;100473.94;5007435;28;20034;-30
2022/05/01 10:44:36;;;;;;;3.50;1.85;;;;;;;24.02;29.01;100461.03;5007260;28;20058;-29
2022/05/01 10:47:13;;;;;;;4.00;2.10;;;;;;;24.40;30.48;100460.88;5007433;28;20033;-32
2022/05/01 10:49:47;;;;;;;4.38;1.98;;;;;;;24.34;27.05;100473.78;5006928;28;20076;-29
2022/05/01 10:52:21;;;;;;;3.60;1.83;;;;;;;24.11;27.84;100463.84;5010421;28;20030;-29
2022/05/01 10:55:04;;;;;;;2.75;1.85;;;;;;;24.13;27.46;100456.19;5009325;28;20045;-30
2022/05/01 10:57:30;;;;;;;2.60;1.80;;;;;;;23.60;29.68;100460.88;5011090;28;20022;-32
2022/05/01 11:00:10;;;;;;;3.72;1.67;;;;;;;24.05;28.24;100463.97;5009543;28;20026;-29
2022/05/01 11:02:40;;;;;;;3.08;1.63;;;;;;;24.42;26.58;100454.00;5011101;28;20026;-29
2022/05/01 11:05:08;;;;;;;3.38;1.83;;;;;;;24.41;27.39;100441.47;5010863;28;20091;-34
2022/05/01 11:07:35;;;;;;;7.50;2.17;;;;;;;24.06;27.40;100434.78;5011130;28;20049;-29
2022/05/01 11:10:03;;;;;;;2.97;2.00;;;;;;;24.76;26.82;100447.34;5010688;28;20036;-30
2022/05/01 11:12:32;;;;;;;3.42;2.03;;;;;;;24.28;27.24;100447.75;5042351;28;20722;-30
2022/05/01 11:15:02;;;;;;;4.03;2.13;;;;;;;24.91;27.69;100442.69;5010465;28;20900;-32
2022/05/01 11:17:28;;;;;;;4.85;2.10;;;;;;;25.76;25.40;100445.66;5010751;28;20033;-29
2022/05/01 11:19:53;;;;;;;3.30;1.65;;;;;;;25.48;25.41;100437.63;5010685;28;20076;-31
2022/05/01 11:22:26;;;;;;;3.67;1.70;;;;;;;25.48;25.21;100429.44;5010666;28;20549;-32
2022/05/01 11:24:51;;;;;;;4.97;1.90;;;;;;;25.74;26.87;100426.03;5009109;28;20113;-29
2022/05/01 11:27:18;;;;;;;3.97;1.80;;;;;;;24.82;27.14;100445.34;5015258;28;20104;-29
2022/05/01 11:30:22;;;;;;;2.67;1.60;;;;;;;24.49;27.07;100425.53;5029219;28;20041;-30
2022/05/01 11:32:49;;;;;;;2.95;1.70;;;;;;;24.58;27.46;100427.28;5027822;28;20033;-29
2022/05/01 11:35:16;;;;;;;3.35;1.70;;;;;;;25.08;26.12;100431.16;5028946;28;20029;-31
2022/05/01 11:38:08;;;;;;;3.05;1.70;;;;;;;25.65;25.02;100423.25;5028446;28;20053;-33
2022/05/01 11:40:34;;;;;;;3.15;1.80;;;;;;;26.20;25.62;100417.47;5028071;28;20056;-29
2022/05/01 11:43:16;;;;;;;2.70;1.90;;;;;;;26.30;25.49;100410.13;5028271;28;20132;-30
2022/05/01 11:45:42;;;;;;;2.65;1.80;;;;;;;25.31;26.39;100418.34;5029721;28;20034;-33
2022/05/01 11:48:21;;;;;;;6.40;1.90;;;;;;;24.75;27.18;100415.75;5029665;28;20030;-29